sensor_id;sensor_type;location;lat;lon;timestamp;pressure;altitude;pressure_sealevel;temperature;humidity
24746;BME280;12845;52.042;6.838;2023-02-18T00:01:30;-18264.28;;;8.77;100.00
24746;BME280;12845;52.042;6.838;2023-02-18T00:03:56;-18263.75;;;8.75;100.00
24746;BME280;12845;52.042;6.838;2023-02-18T00:06:23;-18263.31;;;8.74;100.00
24746;BME280;12845;52.042;6.838;2023-02-18T00:08:48;-18263.47;;;8.74;100.00
24746;BME280;12845;52.042;6.838;2023-02-18T00:11:14;-18263.47;;;8.74;100.00
24746;BME280;12845;52.042;6.838;2023-02-18T00:13:39;-18264.00;;;8.76;100.00
24746;BME280;12845;52.042;6.838;2023-02-18T00:16:06;-18264.28;;;8.77;100.00
24746;BME280;12845;52.042;6.838;2023-02-18T00:18:32;-18264.84;;;8.79;100.00
24746;BME280;12845;52.042;6.838;2023-02-18T00:20:57;-18265.13;;;8.80;100.00
24746;BME280;12845;52.042;6.838;2023-02-18T00:23:22;-18265.25;;;8.81;100.00
24746;BME280;12845;52.042;6.838;2023-02-18T00:25:48;-18266.22;;;8.85;100.00
24746;BME280;12845;52.042;6.838;2023-02-18T00:28:13;-18266.63;;;8.86;100.00
24746;BME280;12845;52.042;6.838;2023-02-18T00:30:39;-18267.31;;;8.89;100.00
24746;BME280;12845;52.042;6.838;2023-02-18T00:33:05;-18267.47;;;8.89;100.00
24746;BME280;12845;52.042;6.838;2023-02-18T00:35:30;-18268.00;;;8.91;100.00
24746;BME280;12845;52.042;6.838;2023-02-18T00:37:55;-18268.56;;;8.93;100.00
24746;BME280;12845;52.042;6.838;2023-02-18T00:40:21;-18269.09;;;8.95;100.00
24746;BME280;12845;52.042;6.838;2023-02-18T00:42:46;-18269.38;;;8.96;100.00
24746;BME280;12845;52.042;6.838;2023-02-18T00:45:11;-18268.56;;;8.93;100.00
24746;BME280;12845;52.042;6.838;2023-02-18T00:47:36;-18269.94;;;8.98;100.00
24746;BME280;12845;52.042;6.838;2023-02-18T00:50:01;-18269.66;;;8.97;100.00
24746;BME280;12845;52.042;6.838;2023-02-18T00:52:27;-18269.66;;;8.97;100.00
24746;BME280;12845;52.042;6.838;2023-02-18T00:54:52;-18270.34;;;9.00;100.00
24746;BME280;12845;52.042;6.838;2023-02-18T00:57:17;-18270.75;;;9.01;100.00
24746;BME280;12845;52.042;6.838;2023-02-18T00:59:42;-18271.03;;;9.02;100.00
24746;BME280;12845;52.042;6.838;2023-02-18T01:02:08;-18271.16;;;9.03;100.00
24746;BME280;12845;52.042;6.838;2023-02-18T01:04:33;-18271.72;;;9.05;100.00
24746;BME280;12845;52.042;6.838;2023-02-18T01:06:58;-18271.44;;;9.04;100.00
24746;BME280;12845;52.042;6.838;2023-02-18T01:09:23;-18272.13;;;9.07;100.00
24746;BME280;12845;52.042;6.838;2023-02-18T01:11:50;-18273.50;;;9.12;100.00
24746;BME280;12845;52.042;6.838;2023-02-18T01:14:15;-18274.19;;;9.14;100.00
24746;BME280;12845;52.042;6.838;2023-02-18T01:16:40;-18274.19;;;9.14;100.00
24746;BME280;12845;52.042;6.838;2023-02-18T01:19:06;-18274.34;;;9.15;100.00
24746;BME280;12845;52.042;6.838;2023-02-18T01:21:31;-18274.47;;;9.15;100.00
24746;BME280;12845;52.042;6.838;2023-02-18T01:23:56;-18275.03;;;9.17;100.00
24746;BME280;12845;52.042;6.838;2023-02-18T01:26:23;-18274.47;;;9.15;100.00
24746;BME280;12845;52.042;6.838;2023-02-18T01:28:48;-18275.16;;;9.18;100.00
24746;BME280;12845;52.042;6.838;2023-02-18T01:31:13;-18275.31;;;9.18;100.00
24746;BME280;12845;52.042;6.838;2023-02-18T01:33:39;-18275.72;;;9.20;100.00
24746;BME280;12845;52.042;6.838;2023-02-18T01:36:04;-18275.72;;;9.20;100.00
24746;BME280;12845;52.042;6.838;2023-02-18T01:38:30;-18276.81;;;9.24;100.00
24746;BME280;12845;52.042;6.838;2023-02-18T01:40:55;-18275.56;;;9.19;100.00
24746;BME280;12845;52.042;6.838;2023-02-18T01:43:20;-18275.56;;;9.19;100.00
24746;BME280;12845;52.042;6.838;2023-02-18T01:48:12;-18275.16;;;9.18;100.00
24746;BME280;12845;52.042;6.838;2023-02-18T01:50:41;-18275.31;;;9.18;100.00
24746;BME280;12845;52.042;6.838;2023-02-18T01:53:07;-18275.56;;;9.19;100.00
24746;BME280;12845;52.042;6.838;2023-02-18T01:55:33;-18275.56;;;9.19;100.00
24746;BME280;12845;52.042;6.838;2023-02-18T01:57:59;-18275.03;;;9.17;100.00
24746;BME280;12845;52.042;6.838;2023-02-18T02:00:25;-18275.16;;;9.18;100.00
24746;BME280;12845;52.042;6.838;2023-02-18T02:02:50;-18274.75;;;9.16;100.00
24746;BME280;12845;52.042;6.838;2023-02-18T02:05:17;-18274.63;;;9.16;100.00
24746;BME280;12845;52.042;6.838;2023-02-18T02:07:42;-18274.19;;;9.14;100.00
24746;BME280;12845;52.042;6.838;2023-02-18T02:10:09;-18274.47;;;9.15;100.00
24746;BME280;12845;52.042;6.838;2023-02-18T02:23:34;-18274.47;;;9.15;100.00
24746;BME280;12845;52.042;6.838;2023-02-18T02:30:52;-18275.56;;;9.19;100.00
24746;BME280;12845;52.042;6.838;2023-02-18T02:36:13;-18275.56;;;9.19;100.00
24746;BME280;12845;52.042;6.838;2023-02-18T02:38:52;-18275.56;;;9.19;100.00
24746;BME280;12845;52.042;6.838;2023-02-18T02:46:42;-18277.50;;;9.26;100.00
24746;BME280;12845;52.042;6.838;2023-02-18T02:51:47;-18278.06;;;9.29;100.00
24746;BME280;12845;52.042;6.838;2023-02-18T02:54:16;-18277.34;;;9.26;100.00
24746;BME280;12845;52.042;6.838;2023-02-18T02:56:41;-18278.19;;;9.29;100.00
24746;BME280;12845;52.042;6.838;2023-02-18T02:59:08;-18277.22;;;9.25;100.00
24746;BME280;12845;52.042;6.838;2023-02-18T03:07:18;-18275.84;;;9.20;100.00
24746;BME280;12845;52.042;6.838;2023-02-18T03:17:30;-18276.53;;;9.23;100.00
24746;BME280;12845;52.042;6.838;2023-02-18T03:20:05;-18276.13;;;9.21;100.00
24746;BME280;12845;52.042;6.838;2023-02-18T03:22:35;-18276.41;;;9.22;100.00
24746;BME280;12845;52.042;6.838;2023-02-18T03:25:03;-18276.25;;;9.22;100.00
24746;BME280;12845;52.042;6.838;2023-02-18T03:27:36;-18276.41;;;9.22;100.00
24746;BME280;12845;52.042;6.838;2023-02-18T03:32:39;-18276.94;;;9.24;100.00
24746;BME280;12845;52.042;6.838;2023-02-18T03:35:09;-18276.53;;;9.23;100.00
24746;BME280;12845;52.042;6.838;2023-02-18T03:37:37;-18276.94;;;9.24;100.00
24746;BME280;12845;52.042;6.838;2023-02-18T03:40:04;-18277.22;;;9.25;100.00
24746;BME280;12845;52.042;6.838;2023-02-18T03:42:30;-18277.50;;;9.26;100.00
24746;BME280;12845;52.042;6.838;2023-02-18T03:44:56;-18277.34;;;9.26;100.00
24746;BME280;12845;52.042;6.838;2023-02-18T03:47:21;-18278.06;;;9.29;100.00
24746;BME280;12845;52.042;6.838;2023-02-18T03:49:47;-18277.50;;;9.26;100.00
24746;BME280;12845;52.042;6.838;2023-02-18T03:52:12;-18278.06;;;9.29;100.00
24746;BME280;12845;52.042;6.838;2023-02-18T03:54:37;-18278.59;;;9.31;100.00
24746;BME280;12845;52.042;6.838;2023-02-18T03:57:02;-18278.06;;;9.29;100.00
24746;BME280;12845;52.042;6.838;2023-02-18T03:59:28;-18279.16;;;9.33;100.00
24746;BME280;12845;52.042;6.838;2023-02-18T04:01:53;-18279.69;;;9.35;100.00
24746;BME280;12845;52.042;6.838;2023-02-18T04:04:18;-18280.13;;;9.36;100.00
24746;BME280;12845;52.042;6.838;2023-02-18T04:06:43;-18279.97;;;9.36;100.00
24746;BME280;12845;52.042;6.838;2023-02-18T04:09:09;-18280.25;;;9.37;100.00
24746;BME280;12845;52.042;6.838;2023-02-18T04:11:35;-18280.53;;;9.38;100.00
24746;BME280;12845;52.042;6.838;2023-02-18T04:14:00;-18281.06;;;9.40;100.00
24746;BME280;12845;52.042;6.838;2023-02-18T04:16:25;-18281.22;;;9.40;100.00
24746;BME280;12845;52.042;6.838;2023-02-18T04:18:50;-18281.91;;;9.43;100.00
24746;BME280;12845;52.042;6.838;2023-02-18T04:21:16;-18281.75;;;9.42;100.00
24746;BME280;12845;52.042;6.838;2023-02-18T04:23:41;-18281.91;;;9.43;100.00
24746;BME280;12845;52.042;6.838;2023-02-18T04:26:06;-18282.72;;;9.46;100.00
24746;BME280;12845;52.042;6.838;2023-02-18T04:28:32;-18282.44;;;9.45;100.00
24746;BME280;12845;52.042;6.838;2023-02-18T04:30:57;-18282.72;;;9.46;100.00
24746;BME280;12845;52.042;6.838;2023-02-18T04:33:22;-18282.72;;;9.46;100.00
24746;BME280;12845;52.042;6.838;2023-02-18T04:35:47;-18283.00;;;9.47;100.00
24746;BME280;12845;52.042;6.838;2023-02-18T04:38:13;-18283.00;;;9.47;100.00
24746;BME280;12845;52.042;6.838;2023-02-18T04:40:38;-18282.72;;;9.46;100.00
24746;BME280;12845;52.042;6.838;2023-02-18T04:43:03;-18282.88;;;9.46;100.00
24746;BME280;12845;52.042;6.838;2023-02-18T04:45:28;-18282.88;;;9.46;100.00
24746;BME280;12845;52.042;6.838;2023-02-18T04:47:54;-18283.13;;;9.47;100.00
24746;BME280;12845;52.042;6.838;2023-02-18T04:50:19;-18283.00;;;9.47;100.00
24746;BME280;12845;52.042;6.838;2023-02-18T04:52:44;-18283.00;;;9.47;100.00
24746;BME280;12845;52.042;6.838;2023-02-18T04:55:10;-18282.59;;;9.45;100.00
24746;BME280;12845;52.042;6.838;2023-02-18T04:57:35;-18282.44;;;9.45;100.00
24746;BME280;12845;52.042;6.838;2023-02-18T05:00:00;-18282.88;;;9.46;100.00
24746;BME280;12845;52.042;6.838;2023-02-18T05:02:26;-18282.44;;;9.45;100.00
24746;BME280;12845;52.042;6.838;2023-02-18T05:04:51;-18282.44;;;9.45;100.00
24746;BME280;12845;52.042;6.838;2023-02-18T05:07:17;-18281.91;;;9.43;100.00
24746;BME280;12845;52.042;6.838;2023-02-18T05:09:42;-18281.91;;;9.43;100.00
24746;BME280;12845;52.042;6.838;2023-02-18T05:12:07;-18282.19;;;9.44;100.00
24746;BME280;12845;52.042;6.838;2023-02-18T05:14:33;-18281.63;;;9.42;100.00
24746;BME280;12845;52.042;6.838;2023-02-18T05:16:58;-18281.91;;;9.43;100.00
24746;BME280;12845;52.042;6.838;2023-02-18T05:19:23;-18282.59;;;9.45;100.00
24746;BME280;12845;52.042;6.838;2023-02-18T05:21:48;-18282.59;;;9.45;100.00
24746;BME280;12845;52.042;6.838;2023-02-18T05:24:13;-18282.59;;;9.45;100.00
24746;BME280;12845;52.042;6.838;2023-02-18T05:26:39;-18282.59;;;9.45;100.00
24746;BME280;12845;52.042;6.838;2023-02-18T05:29:04;-18282.19;;;9.44;100.00
24746;BME280;12845;52.042;6.838;2023-02-18T05:31:29;-18282.31;;;9.44;100.00
24746;BME280;12845;52.042;6.838;2023-02-18T05:33:55;-18282.44;;;9.45;100.00
24746;BME280;12845;52.042;6.838;2023-02-18T05:36:20;-18279.94;;;9.43;100.00
24746;BME280;12845;52.042;6.838;2023-02-18T05:38:45;-18279.81;;;9.42;100.00
24746;BME280;12845;52.042;6.838;2023-02-18T05:41:10;-18264.50;;;9.43;100.00
24746;BME280;12845;52.042;6.838;2023-02-18T05:43:36;-18275.44;;;9.45;100.00
24746;BME280;12845;52.042;6.838;2023-02-18T05:46:21;-18261.91;;;9.43;100.00
24746;BME280;12845;52.042;6.838;2023-02-18T05:48:46;-18243.84;;;9.44;100.00
24746;BME280;12845;52.042;6.838;2023-02-18T05:51:11;-18220.19;;;9.43;100.00
24746;BME280;12845;52.042;6.838;2023-02-18T05:53:37;-18202.28;;;9.44;100.00
24746;BME280;12845;52.042;6.838;2023-02-18T05:56:02;-18196.78;;;9.43;100.00
24746;BME280;12845;52.042;6.838;2023-02-18T05:58:27;-18191.47;;;9.42;100.00
24746;BME280;12845;52.042;6.838;2023-02-18T06:00:53;-18168.22;;;9.43;100.00
24746;BME280;12845;52.042;6.838;2023-02-18T06:03:18;-18170.81;;;9.43;100.00
24746;BME280;12845;52.042;6.838;2023-02-18T06:05:43;-18170.81;;;9.43;100.00
24746;BME280;12845;52.042;6.838;2023-02-18T06:08:08;-18170.81;;;9.43;100.00
24746;BME280;12845;52.042;6.838;2023-02-18T06:10:33;-18165.34;;;9.42;100.00
24746;BME280;12845;52.042;6.838;2023-02-18T06:12:59;-18144.56;;;9.42;100.00
24746;BME280;12845;52.042;6.838;2023-02-18T06:15:26;-18147.00;;;9.41;100.00
24746;BME280;12845;52.042;6.838;2023-02-18T06:17:51;-18154.69;;;9.41;100.00
24746;BME280;12845;52.042;6.838;2023-02-18T06:20:16;-18185.84;;;9.41;100.00
24746;BME280;12845;52.042;6.838;2023-02-18T06:22:42;-18183.25;;;9.41;100.00
24746;BME280;12845;52.042;6.838;2023-02-18T06:25:07;-18165.06;;;9.41;100.00
24746;BME280;12845;52.042;6.838;2023-02-18T06:27:32;-18151.53;;;9.39;100.00
24746;BME280;12845;52.042;6.838;2023-02-18T06:29:57;-18146.59;;;9.40;100.00
24746;BME280;12845;52.042;6.838;2023-02-18T06:32:23;-18138.66;;;9.39;100.00
24746;BME280;12845;52.042;6.838;2023-02-18T06:34:48;-18151.53;;;9.39;100.00
24746;BME280;12845;52.042;6.838;2023-02-18T06:37:13;-18172.03;;;9.38;100.00
24746;BME280;12845;52.042;6.838;2023-02-18T06:39:38;-18169.31;;;9.37;100.00
24746;BME280;12845;52.042;6.838;2023-02-18T06:42:04;-18174.78;;;9.38;100.00
24746;BME280;12845;52.042;6.838;2023-02-18T06:44:29;-18182.72;;;9.39;100.00
24746;BME280;12845;52.042;6.838;2023-02-18T06:46:54;-18180.38;;;9.40;100.00
24746;BME280;12845;52.042;6.838;2023-02-18T06:49:20;-18192.81;;;9.38;100.00
24746;BME280;12845;52.042;6.838;2023-02-18T06:51:45;-18200.91;;;9.39;100.00
24746;BME280;12845;52.042;6.838;2023-02-18T06:54:10;-18203.38;;;9.38;100.00
24746;BME280;12845;52.042;6.838;2023-02-18T06:56:35;-18195.69;;;9.39;100.00
24746;BME280;12845;52.042;6.838;2023-02-18T06:59:00;-18201.59;;;9.41;100.00
24746;BME280;12845;52.042;6.838;2023-02-18T07:01:26;-18221.69;;;9.39;100.00
24746;BME280;12845;52.042;6.838;2023-02-18T07:03:51;-18219.22;;;9.39;100.00
24746;BME280;12845;52.042;6.838;2023-02-18T07:06:16;-18210.75;;;9.37;100.00
24746;BME280;12845;52.042;6.838;2023-02-18T07:08:41;-18216.34;;;9.38;100.00
24746;BME280;12845;52.042;6.838;2023-02-18T07:11:07;-18208.28;;;9.37;100.00
24746;BME280;12845;52.042;6.838;2023-02-18T07:13:32;-18200.63;;;9.38;100.00
24746;BME280;12845;52.042;6.838;2023-02-18T07:15:57;-18200.91;;;9.39;100.00
24746;BME280;12845;52.042;6.838;2023-02-18T07:18:22;-18201.03;;;9.39;100.00
24746;BME280;12845;52.042;6.838;2023-02-18T07:20:48;-18211.44;;;9.39;100.00
24746;BME280;12845;52.042;6.838;2023-02-18T07:23:13;-18221.56;;;9.38;100.00
24746;BME280;12845;52.042;6.838;2023-02-18T07:25:38;-18213.63;;;9.38;100.00
24746;BME280;12845;52.042;6.838;2023-02-18T07:28:03;-18200.34;;;9.37;100.00
24746;BME280;12845;52.042;6.838;2023-02-18T07:30:29;-18200.34;;;9.37;100.00
24746;BME280;12845;52.042;6.838;2023-02-18T07:32:54;-18200.75;;;9.38;100.00
24746;BME280;12845;52.042;6.838;2023-02-18T07:35:19;-18200.63;;;9.38;100.00
24746;BME280;12845;52.042;6.838;2023-02-18T07:37:48;-18180.25;;;9.39;100.00
24746;BME280;12845;52.042;6.838;2023-02-18T07:40:15;-18172.31;;;9.39;100.00
24746;BME280;12845;52.042;6.838;2023-02-18T07:42:40;-18203.38;;;9.38;100.00
24746;BME280;12845;52.042;6.838;2023-02-18T07:45:06;-18177.22;;;9.38;100.00
24746;BME280;12845;52.042;6.838;2023-02-18T07:47:31;-18169.44;;;9.38;100.00
24746;BME280;12845;52.042;6.838;2023-02-18T07:49:56;-18153.84;;;9.38;100.00
24746;BME280;12845;52.042;6.838;2023-02-18T07:52:21;-18164.25;;;9.38;100.00
24746;BME280;12845;52.042;6.838;2023-02-18T07:54:47;-18182.28;;;9.37;100.00
24746;BME280;12845;52.042;6.838;2023-02-18T07:57:12;-18184.75;;;9.37;100.00
24746;BME280;12845;52.042;6.838;2023-02-18T07:59:37;-18200.34;;;9.37;100.00
24746;BME280;12845;52.042;6.838;2023-02-18T08:02:03;-18200.06;;;9.36;100.00
24746;BME280;12845;52.042;6.838;2023-02-18T08:04:29;-18214.97;;;9.33;100.00
24746;BME280;12845;52.042;6.838;2023-02-18T08:06:54;-18202.13;;;9.34;100.00
24746;BME280;12845;52.042;6.838;2023-02-18T08:09:20;-18233.56;;;9.35;100.00
24746;BME280;12845;52.042;6.838;2023-02-18T08:11:45;-18259.44;;;9.34;100.00
24746;BME280;12845;52.042;6.838;2023-02-18T08:14:10;-18279.16;;;9.33;100.00
24746;BME280;12845;52.042;6.838;2023-02-18T08:16:35;-18279.44;;;9.34;100.00
24746;BME280;12845;52.042;6.838;2023-02-18T08:19:01;-18279.16;;;9.33;100.00
24746;BME280;12845;52.042;6.838;2023-02-18T08:21:27;-18279.16;;;9.33;100.00
24746;BME280;12845;52.042;6.838;2023-02-18T08:23:53;-18279.16;;;9.33;100.00
24746;BME280;12845;52.042;6.838;2023-02-18T08:26:18;-18278.75;;;9.31;100.00
24746;BME280;12845;52.042;6.838;2023-02-18T08:28:44;-18278.59;;;9.31;100.00
24746;BME280;12845;52.042;6.838;2023-02-18T08:33:41;-18278.06;;;9.29;100.00
24746;BME280;12845;52.042;6.838;2023-02-18T08:36:07;-18277.63;;;9.27;100.00
24746;BME280;12845;52.042;6.838;2023-02-18T08:38:34;-18278.19;;;9.29;100.00
24746;BME280;12845;52.042;6.838;2023-02-18T08:41:07;-18278.31;;;9.30;100.00
24746;BME280;12845;52.042;6.838;2023-02-18T08:43:32;-18278.06;;;9.29;100.00
24746;BME280;12845;52.042;6.838;2023-02-18T08:45:57;-18277.34;;;9.26;100.00
24746;BME280;12845;52.042;6.838;2023-02-18T08:48:23;-18278.06;;;9.29;100.00
24746;BME280;12845;52.042;6.838;2023-02-18T08:50:48;-18277.50;;;9.26;100.00
24746;BME280;12845;52.042;6.838;2023-02-18T08:53:13;-18276.66;;;9.23;100.00
24746;BME280;12845;52.042;6.838;2023-02-18T08:55:39;-18276.00;;;9.21;100.00
24746;BME280;12845;52.042;6.838;2023-02-18T08:58:05;-18276.13;;;9.21;100.00
24746;BME280;12845;52.042;6.838;2023-02-18T09:00:31;-18275.16;;;9.18;100.00
24746;BME280;12845;52.042;6.838;2023-02-18T09:02:56;-18275.03;;;9.17;100.00
24746;BME280;12845;52.042;6.838;2023-02-18T09:05:22;-18275.03;;;9.17;100.00
24746;BME280;12845;52.042;6.838;2023-02-18T09:07:47;-18274.19;;;9.14;100.00
24746;BME280;12845;52.042;6.838;2023-02-18T09:10:12;-18274.06;;;9.14;100.00
24746;BME280;12845;52.042;6.838;2023-02-18T09:12:37;-18273.94;;;9.13;100.00
24746;BME280;12845;52.042;6.838;2023-02-18T09:15:03;-18273.66;;;9.12;100.00
24746;BME280;12845;52.042;6.838;2023-02-18T09:17:29;-18272.53;;;9.08;100.00
24746;BME280;12845;52.042;6.838;2023-02-18T09:19:54;-18271.72;;;9.05;100.00
24746;BME280;12845;52.042;6.838;2023-02-18T09:22:19;-18270.91;;;9.02;100.00
24746;BME280;12845;52.042;6.838;2023-02-18T09:24:45;-18270.63;;;9.01;100.00
24746;BME280;12845;52.042;6.838;2023-02-18T09:27:10;-18270.34;;;9.00;100.00
24746;BME280;12845;52.042;6.838;2023-02-18T09:29:39;-18270.06;;;8.99;100.00
24746;BME280;12845;52.042;6.838;2023-02-18T09:32:05;-18269.81;;;8.98;100.00
24746;BME280;12845;52.042;6.838;2023-02-18T09:34:31;-18269.81;;;8.98;100.00
24746;BME280;12845;52.042;6.838;2023-02-18T09:36:56;-18268.97;;;8.95;100.00
24746;BME280;12845;52.042;6.838;2023-02-18T09:39:21;-18269.09;;;8.95;100.00
24746;BME280;12845;52.042;6.838;2023-02-18T09:41:47;-18268.84;;;8.94;100.00
24746;BME280;12845;52.042;6.838;2023-02-18T09:44:21;-18269.09;;;8.95;100.00
24746;BME280;12845;52.042;6.838;2023-02-18T09:46:53;-18268.97;;;8.95;100.00
24746;BME280;12845;52.042;6.838;2023-02-18T09:49:20;-18268.16;;;8.92;100.00
24746;BME280;12845;52.042;6.838;2023-02-18T09:51:47;-18267.59;;;8.90;100.00
24746;BME280;12845;52.042;6.838;2023-02-18T09:54:13;-18266.22;;;8.85;100.00
24746;BME280;12845;52.042;6.838;2023-02-18T09:56:40;-18266.63;;;8.86;100.00
24746;BME280;12845;52.042;6.838;2023-02-18T09:59:08;-18265.41;;;8.81;100.00
24746;BME280;12845;52.042;6.838;2023-02-18T10:01:36;-18265.41;;;8.81;100.00
24746;BME280;12845;52.042;6.838;2023-02-18T10:04:03;-18264.56;;;8.78;100.00
24746;BME280;12845;52.042;6.838;2023-02-18T10:06:30;-18264.56;;;8.78;100.00
24746;BME280;12845;52.042;6.838;2023-02-18T10:08:58;-18264.28;;;8.77;100.00
24746;BME280;12845;52.042;6.838;2023-02-18T10:11:32;-18264.16;;;8.77;100.00
24746;BME280;12845;52.042;6.838;2023-02-18T10:13:59;-18264.16;;;8.77;100.00
24746;BME280;12845;52.042;6.838;2023-02-18T10:16:25;-18263.47;;;8.74;100.00
24746;BME280;12845;52.042;6.838;2023-02-18T10:18:58;-18262.91;;;8.72;100.00
24746;BME280;12845;52.042;6.838;2023-02-18T10:21:25;-18261.69;;;8.68;100.00
24746;BME280;12845;52.042;6.838;2023-02-18T10:26:16;-18261.13;;;8.66;100.00
24746;BME280;12845;52.042;6.838;2023-02-18T10:28:42;-18260.84;;;8.65;100.00
24746;BME280;12845;52.042;6.838;2023-02-18T10:31:09;-18261.41;;;8.67;100.00
24746;BME280;12845;52.042;6.838;2023-02-18T10:36:22;-18261.00;;;8.65;100.00
24746;BME280;12845;52.042;6.838;2023-02-18T10:39:04;-18261.69;;;8.68;100.00
24746;BME280;12845;52.042;6.838;2023-02-18T10:51:51;-18263.06;;;8.73;100.00
24746;BME280;12845;52.042;6.838;2023-02-18T10:54:22;-18262.78;;;8.72;100.00
24746;BME280;12845;52.042;6.838;2023-02-18T10:56:48;-18262.91;;;8.72;100.00
24746;BME280;12845;52.042;6.838;2023-02-18T10:59:23;-18262.91;;;8.72;100.00
24746;BME280;12845;52.042;6.838;2023-02-18T11:02:02;-18263.19;;;8.73;100.00
24746;BME280;12845;52.042;6.838;2023-02-18T11:04:35;-18263.19;;;8.73;100.00
24746;BME280;12845;52.042;6.838;2023-02-18T11:07:03;-18263.31;;;8.74;100.00
24746;BME280;12845;52.042;6.838;2023-02-18T11:09:41;-18262.50;;;8.71;100.00
24746;BME280;12845;52.042;6.838;2023-02-18T11:14:43;-18263.31;;;8.74;100.00
24746;BME280;12845;52.042;6.838;2023-02-18T11:17:14;-18262.50;;;8.71;100.00
24746;BME280;12845;52.042;6.838;2023-02-18T11:19:40;-18263.19;;;8.73;100.00
24746;BME280;12845;52.042;6.838;2023-02-18T11:22:08;-18262.91;;;8.72;100.00
24746;BME280;12845;52.042;6.838;2023-02-18T11:24:38;-18262.09;;;8.69;100.00
24746;BME280;12845;52.042;6.838;2023-02-18T11:27:09;-18262.38;;;8.70;100.00
24746;BME280;12845;52.042;6.838;2023-02-18T11:29:35;-18262.22;;;8.70;100.00
24746;BME280;12845;52.042;6.838;2023-02-18T11:32:01;-18262.78;;;8.72;100.00
24746;BME280;12845;52.042;6.838;2023-02-18T11:34:27;-18263.19;;;8.73;100.00
24746;BME280;12845;52.042;6.838;2023-02-18T11:36:53;-18264.00;;;8.76;100.00
24746;BME280;12845;52.042;6.838;2023-02-18T11:39:26;-18264.44;;;8.78;100.00
24746;BME280;12845;52.042;6.838;2023-02-18T11:41:59;-18265.41;;;8.81;100.00
24746;BME280;12845;52.042;6.838;2023-02-18T11:44:32;-18265.66;;;8.82;100.00
24746;BME280;12845;52.042;6.838;2023-02-18T11:47:03;-18265.94;;;8.84;100.00
24746;BME280;12845;52.042;6.838;2023-02-18T11:49:29;-18267.03;;;8.88;100.00
24746;BME280;12845;52.042;6.838;2023-02-18T11:51:54;-18267.47;;;8.89;100.00
24746;BME280;12845;52.042;6.838;2023-02-18T11:54:29;-18267.31;;;8.89;100.00
24746;BME280;12845;52.042;6.838;2023-02-18T11:56:59;-18268.84;;;8.94;100.00
24746;BME280;12845;52.042;6.838;2023-02-18T11:59:26;-18269.66;;;8.97;100.00
24746;BME280;12845;52.042;6.838;2023-02-18T12:01:54;-18269.94;;;8.98;100.00
24746;BME280;12845;52.042;6.838;2023-02-18T12:06:54;-18270.91;;;9.02;100.00
24746;BME280;12845;52.042;6.838;2023-02-18T12:09:28;-18271.31;;;9.03;100.00
24746;BME280;12845;52.042;6.838;2023-02-18T12:11:58;-18272.13;;;9.07;100.00
24746;BME280;12845;52.042;6.838;2023-02-18T12:14:28;-18272.13;;;9.07;100.00
24746;BME280;12845;52.042;6.838;2023-02-18T12:27:21;-18275.31;;;9.18;100.00
24746;BME280;12845;52.042;6.838;2023-02-18T12:29:53;-18275.31;;;9.18;100.00
24746;BME280;12845;52.042;6.838;2023-02-18T12:32:47;-18276.13;;;9.21;100.00
24746;BME280;12845;52.042;6.838;2023-02-18T12:35:19;-18276.53;;;9.23;100.00
24746;BME280;12845;52.042;6.838;2023-02-18T12:53:56;-18278.19;;;9.29;100.00
24746;BME280;12845;52.042;6.838;2023-02-18T13:12:10;-18277.22;;;9.25;100.00
24746;BME280;12845;52.042;6.838;2023-02-18T13:14:46;-18276.66;;;9.23;100.00
24746;BME280;12845;52.042;6.838;2023-02-18T13:17:14;-18276.81;;;9.24;100.00
24746;BME280;12845;52.042;6.838;2023-02-18T13:19:51;-18277.50;;;9.26;100.00
24746;BME280;12845;52.042;6.838;2023-02-18T13:22:22;-18277.50;;;9.26;100.00
24746;BME280;12845;52.042;6.838;2023-02-18T13:24:53;-18278.31;;;9.30;100.00
24746;BME280;12845;52.042;6.838;2023-02-18T13:35:28;-18281.63;;;9.42;100.00
24746;BME280;12845;52.042;6.838;2023-02-18T13:40:44;-18281.22;;;9.40;100.00
24746;BME280;12845;52.042;6.838;2023-02-18T13:43:34;-18281.50;;;9.41;100.00
24746;BME280;12845;52.042;6.838;2023-02-18T13:46:11;-18281.91;;;9.43;100.00
24746;BME280;12845;52.042;6.838;2023-02-18T13:49:04;-18282.19;;;9.44;100.00
24746;BME280;12845;52.042;6.838;2023-02-18T13:51:40;-18281.75;;;9.42;100.00
24746;BME280;12845;52.042;6.838;2023-02-18T13:56:33;-18283.00;;;9.47;100.00
24746;BME280;12845;52.042;6.838;2023-02-18T13:59:16;-18282.59;;;9.45;100.00
24746;BME280;12845;52.042;6.838;2023-02-18T14:01:54;-18282.72;;;9.46;100.00
24746;BME280;12845;52.042;6.838;2023-02-18T14:09:53;-18282.88;;;9.46;100.00
24746;BME280;12845;52.042;6.838;2023-02-18T14:12:35;-18282.44;;;9.45;100.00
24746;BME280;12845;52.042;6.838;2023-02-18T14:15:05;-18282.03;;;9.43;100.00
24746;BME280;12845;52.042;6.838;2023-02-18T14:17:37;-18281.50;;;9.41;100.00
24746;BME280;12845;52.042;6.838;2023-02-18T14:25:32;-18280.94;;;9.39;100.00
24746;BME280;12845;52.042;6.838;2023-02-18T14:27:42;-18281.63;;;9.42;100.00
24746;BME280;12845;52.042;6.838;2023-02-18T14:30:18;-18281.63;;;9.42;100.00
24746;BME280;12845;52.042;6.838;2023-02-18T14:32:49;-18281.91;;;9.43;100.00
24746;BME280;12845;52.042;6.838;2023-02-18T14:35:20;-18282.31;;;9.44;100.00
24746;BME280;12845;52.042;6.838;2023-02-18T14:37:56;-18282.31;;;9.44;100.00
24746;BME280;12845;52.042;6.838;2023-02-18T14:40:36;-18282.19;;;9.44;100.00
24746;BME280;12845;52.042;6.838;2023-02-18T14:48:33;-18282.03;;;9.43;100.00
24746;BME280;12845;52.042;6.838;2023-02-18T14:51:02;-18283.00;;;9.47;100.00
24746;BME280;12845;52.042;6.838;2023-02-18T14:53:28;-18282.59;;;9.45;100.00
24746;BME280;12845;52.042;6.838;2023-02-18T14:55:54;-18282.72;;;9.46;100.00
24746;BME280;12845;52.042;6.838;2023-02-18T14:58:35;-18283.28;;;9.48;100.00
24746;BME280;12845;52.042;6.838;2023-02-18T15:01:05;-18283.97;;;9.51;100.00
24746;BME280;12845;52.042;6.838;2023-02-18T15:03:31;-18284.78;;;9.54;100.00
24746;BME280;12845;52.042;6.838;2023-02-18T15:05:56;-18284.94;;;9.54;100.00
24746;BME280;12845;52.042;6.838;2023-02-18T15:08:22;-18285.88;;;9.58;100.00
24746;BME280;12845;52.042;6.838;2023-02-18T15:13:26;-18286.44;;;9.60;100.00